Time;durP1;ratioP1;P1;durP2;ratioP2;P2;SDS_P1;SDS_P2;PMS_P1;PMS_P2;Temp;Humidity;BMP_temperature;BMP_pressure;BME280_temperature;BME280_humidity;BME280_pressure;Samples;Min_cycle;Max_cycle;Signal;HPM_P1;HPM_P2
2022/10/27 00:00:47;;;;;;;13.13;4.87;;;;;;;13.52;66.81;95757.72;5115082;28;20817;-77
2022/10/27 00:03:16;;;;;;;7.23;5.33;;;;;;;13.52;67.28;95746.34;5115051;28;20451;-77
2022/10/27 00:05:43;;;;;;;13.93;6.23;;;;;;;13.55;67.53;95749.56;5115145;28;20507;-77
2022/10/27 00:08:13;;;;;;;9.90;5.77;;;;;;;13.55;66.71;95749.56;5062524;28;20454;-77
2022/10/27 00:10:41;;;;;;;7.00;5.40;;;;;;;13.59;67.50;95745.72;5115514;28;21064;-77
2022/10/27 00:13:08;;;;;;;8.47;5.33;;;;;;;13.59;67.41;95751.00;5115017;28;20478;-77
2022/10/27 00:15:36;;;;;;;5.90;4.40;;;;;;;13.59;66.81;95751.00;5115205;28;20447;-77
2022/10/27 00:18:08;;;;;;;7.47;3.67;;;;;;;13.62;66.76;95760.47;5115030;28;20435;-77
2022/10/27 00:20:35;;;;;;;4.43;3.83;;;;;;;13.59;67.22;95755.44;5115019;28;20451;-78
2022/10/27 00:23:01;;;;;;;5.13;3.70;;;;;;;13.57;67.30;95763.44;5062342;28;20447;-77
2022/10/27 00:25:28;;;;;;;2.97;2.50;;;;;;;13.54;66.66;95762.88;5114962;28;20438;-77
2022/10/27 00:27:55;;;;;;;3.90;3.30;;;;;;;13.49;66.93;95760.63;5114883;28;20756;-78
2022/10/27 00:30:22;;;;;;;4.73;3.73;;;;;;;13.47;66.88;95762.53;5078912;28;20540;-77
2022/10/27 00:32:50;;;;;;;5.20;4.60;;;;;;;13.32;68.17;95753.28;5062313;28;20913;-77
2022/10/27 00:35:16;;;;;;;8.43;4.80;;;;;;;13.27;68.21;95758.91;5114152;28;20469;-77
2022/10/27 00:37:43;;;;;;;9.53;5.87;;;;;;;13.22;68.85;95757.59;5114626;28;20871;-77
2022/10/27 00:40:11;;;;;;;11.30;7.37;;;;;;;13.07;68.71;95767.56;5114623;28;20439;-77
2022/10/27 00:42:38;;;;;;;8.47;5.97;;;;;;;13.16;68.96;95768.63;5078817;28;20443;-77
2022/10/27 00:45:06;;;;;;;12.10;5.93;;;;;;;13.21;69.09;95764.66;5114342;28;20448;-77
2022/10/27 00:47:36;;;;;;;9.10;6.37;;;;;;;13.28;68.99;95759.72;5114369;28;20450;-77
2022/10/27 00:50:09;;;;;;;10.13;6.00;;;;;;;13.26;69.32;95764.28;5114477;28;20518;-77
2022/10/27 00:52:41;;;;;;;8.40;5.20;;;;;;;13.29;69.68;95769.31;5114436;28;20467;-77
2022/10/27 00:55:14;;;;;;;8.20;5.33;;;;;;;13.34;68.88;95767.16;5114254;28;20443;-78
2022/10/27 00:57:44;;;;;;;8.93;5.63;;;;;;;13.35;68.99;95762.72;5114147;28;20934;-77
2022/10/27 01:00:11;;;;;;;8.83;5.47;;;;;;;13.40;69.34;95764.03;5061592;28;20971;-77
2022/10/27 01:02:38;;;;;;;8.67;5.00;;;;;;;13.45;68.63;95764.47;5078270;28;20919;-77
2022/10/27 01:05:12;;;;;;;8.83;5.90;;;;;;;13.50;68.76;95772.84;5114071;28;20447;-77
2022/10/27 01:07:42;;;;;;;10.83;5.60;;;;;;;13.53;68.24;95772.56;5113981;28;20439;-77
2022/10/27 01:10:09;;;;;;;11.10;5.93;;;;;;;13.59;68.60;95772.09;5113717;28;20596;-77
2022/10/27 01:12:36;;;;;;;8.00;5.33;;;;;;;13.65;68.12;95778.66;5114021;28;20447;-77
2022/10/27 01:15:04;;;;;;;10.93;5.70;;;;;;;13.67;68.16;95770.63;5114243;28;20808;-77
2022/10/27 01:17:40;;;;;;;10.00;5.50;;;;;;;13.71;68.53;95782.59;5113841;28;20496;-78
2022/10/27 01:20:45;;;;;;;6.30;5.00;;;;;;;13.70;68.42;95778.28;5113923;28;20454;-77
2022/10/27 01:23:23;;;;;;;9.60;5.63;;;;;;;13.61;69.28;95780.72;5030945;28;20457;-77
2022/10/27 01:26:34;;;;;;;9.63;6.90;;;;;;;13.54;69.03;95789.25;5030895;28;20497;-77
2022/10/27 01:29:37;;;;;;;11.37;6.70;;;;;;;13.48;68.97;95789.75;4997395;28;20492;-77
2022/10/27 01:32:15;;;;;;;8.77;6.33;;;;;;;13.47;69.33;95786.28;5030636;28;20447;-77
2022/10/27 01:34:46;;;;;;;9.63;6.80;;;;;;;13.48;69.69;95782.69;5030584;28;20461;-77
2022/10/27 01:37:19;;;;;;;10.63;6.73;;;;;;;13.51;69.77;95789.50;5030688;28;20447;-77
2022/10/27 01:39:53;;;;;;;11.07;5.10;;;;;;;13.48;69.94;95784.47;5030458;28;20446;-77
2022/10/27 01:42:27;;;;;;;6.67;5.67;;;;;;;13.55;70.64;95794.38;5030418;28;20923;-78
2022/10/27 01:44:56;;;;;;;6.77;5.10;;;;;;;13.55;70.62;95790.91;5030358;28;20864;-78
2022/10/27 01:47:26;;;;;;;5.30;3.10;;;;;;;13.53;71.07;95792.84;4996398;28;20452;-77
2022/10/27 01:49:53;;;;;;;6.87;4.10;;;;;;;13.43;71.30;95798.03;5030299;28;20928;-77
2022/10/27 01:52:43;;;;;;;4.20;3.07;;;;;;;13.40;71.58;95795.66;4997143;28;20498;-77
2022/10/27 01:55:15;;;;;;;4.60;3.70;;;;;;;13.37;70.87;95798.53;5030537;28;20450;-77
2022/10/27 01:58:06;;;;;;;4.67;4.13;;;;;;;13.34;70.69;95788.25;5030238;28;20447;-77
2022/10/27 02:00:43;;;;;;;5.03;4.00;;;;;;;13.31;70.69;95793.78;5008870;28;20538;-77
2022/10/27 02:03:15;;;;;;;10.03;4.37;;;;;;;13.28;71.64;95789.56;5030107;28;20586;-77
2022/10/27 02:05:50;;;;;;;6.10;3.80;;;;;;;13.24;72.19;95790.78;5030133;28;20508;-77
2022/10/27 02:08:27;;;;;;;5.13;3.93;;;;;;;13.23;72.12;95790.91;5030103;28;20504;-77
2022/10/27 02:10:59;;;;;;;4.83;4.37;;;;;;;13.23;72.94;95790.91;4997099;28;20482;-77
2022/10/27 02:13:27;;;;;;;6.97;4.17;;;;;;;13.16;72.35;95774.72;5030369;28;20581;-77
2022/10/27 02:15:59;;;;;;;6.80;4.13;;;;;;;13.16;72.24;95782.63;5030304;28;20442;-77
2022/10/27 02:18:32;;;;;;;8.00;3.30;;;;;;;13.16;72.34;95780.00;5029951;28;21019;-77
2022/10/27 02:21:02;;;;;;;4.17;3.77;;;;;;;13.13;72.19;95776.78;5030096;28;20458;-77
2022/10/27 02:23:30;;;;;;;4.83;3.43;;;;;;;13.12;72.29;95783.00;5030080;28;20497;-77
2022/10/27 02:26:01;;;;;;;4.87;3.67;;;;;;;13.16;72.31;95779.16;4997175;28;20504;-78
2022/10/27 02:28:35;;;;;;;4.87;3.90;;;;;;;13.21;72.23;95784.91;5029900;28;20439;-77
2022/10/27 02:31:02;;;;;;;6.00;3.60;;;;;;;13.23;71.68;95780.34;5029945;28;20482;-78
2022/10/27 02:33:30;;;;;;;8.50;4.40;;;;;;;13.25;71.56;95783.72;5029914;28;20443;-78
2022/10/27 02:35:57;;;;;;;4.67;3.67;;;;;;;13.24;72.19;95780.22;5029821;28;20501;-78
2022/10/27 02:38:24;;;;;;;5.10;3.87;;;;;;;13.23;72.86;95783.00;5095431;28;20443;-78
2022/10/27 02:40:51;;;;;;;8.03;4.53;;;;;;;13.26;72.46;95785.38;5112867;28;20454;-78
2022/10/27 02:43:18;;;;;;;4.27;3.47;;;;;;;13.26;72.50;95788.00;5112664;28;20455;-78
2022/10/27 02:45:44;;;;;;;5.60;3.27;;;;;;;13.20;72.13;95791.16;5112843;28;20431;-77
2022/10/27 02:48:11;;;;;;;4.33;3.93;;;;;;;13.21;71.62;95787.56;5076347;28;20945;-78
2022/10/27 02:50:39;;;;;;;3.63;3.33;;;;;;;13.21;72.06;95795.47;5112788;28;20889;-77
2022/10/27 02:53:06;;;;;;;5.57;3.50;;;;;;;13.22;73.01;95799.78;5112559;28;20539;-78
2022/10/27 02:55:33;;;;;;;6.00;3.87;;;;;;;13.18;71.54;95799.19;5112789;28;20450;-77
2022/10/27 02:58:00;;;;;;;4.60;3.17;;;;;;;13.17;71.83;95804.53;5112588;28;20447;-78
2022/10/27 03:00:26;;;;;;;4.10;3.50;;;;;;;13.13;71.30;95809.22;5116143;28;20446;-77
2022/10/27 03:02:53;;;;;;;5.60;3.80;;;;;;;13.09;71.92;95809.59;5116359;28;20495;-77
2022/10/27 03:05:20;;;;;;;4.80;3.40;;;;;;;13.00;71.37;95811.16;5116207;28;20443;-77
2022/10/27 03:07:48;;;;;;;9.23;3.80;;;;;;;13.03;71.54;95806.50;5116402;28;20450;-77
2022/10/27 03:10:15;;;;;;;7.10;4.10;;;;;;;13.08;72.96;95814.03;5115978;28;20851;-77
2022/10/27 03:12:42;;;;;;;6.50;4.30;;;;;;;13.09;73.18;95828.88;5116267;28;20450;-77
2022/10/27 03:15:09;;;;;;;12.00;4.63;;;;;;;13.09;73.62;95825.41;5116070;28;20492;-78
2022/10/27 03:17:36;;;;;;;11.60;7.03;;;;;;;13.07;73.88;95828.16;5116376;28;20449;-77
2022/10/27 03:20:03;;;;;;;12.63;6.07;;;;;;;13.03;73.68;95830.22;5116300;28;20451;-77
2022/10/27 03:22:30;;;;;;;13.83;6.03;;;;;;;12.66;75.47;95828.78;5116106;28;20443;-77
2022/10/27 03:24:58;;;;;;;8.70;5.67;;;;;;;12.64;75.72;95830.69;5063517;28;20446;-77
2022/10/27 03:27:25;;;;;;;10.43;6.47;;;;;;;12.32;76.86;95835.81;5116258;28;20453;-78
2022/10/27 03:29:51;;;;;;;8.07;6.17;;;;;;;12.15;77.97;95837.13;5115831;28;20481;-77
2022/10/27 03:32:18;;;;;;;6.70;5.37;;;;;;;12.23;77.27;95831.28;5116151;28;20445;-78
2022/10/27 03:34:45;;;;;;;6.13;5.30;;;;;;;12.33;77.26;95842.75;5115987;28;20470;-77
2022/10/27 03:37:11;;;;;;;8.37;5.40;;;;;;;12.41;76.73;95851.75;5115522;28;20830;-77
2022/10/27 03:39:38;;;;;;;6.27;5.07;;;;;;;12.51;76.44;95845.78;5115822;28;20461;-77
2022/10/27 03:42:06;;;;;;;8.07;5.47;;;;;;;12.54;75.21;95846.38;5115935;28;20439;-77
2022/10/27 03:44:33;;;;;;;10.30;5.50;;;;;;;12.48;75.85;95851.28;5115596;28;20450;-77
2022/10/27 03:47:00;;;;;;;9.07;6.03;;;;;;;12.38;76.02;95851.97;5115742;28;20441;-78
2022/10/27 03:49:27;;;;;;;9.40;5.77;;;;;;;12.38;76.93;95857.25;5079662;28;20437;-77
2022/10/27 03:51:53;;;;;;;11.53;6.00;;;;;;;12.33;76.88;95854.13;5062625;28;20446;-77
2022/10/27 03:54:20;;;;;;;11.33;7.77;;;;;;;12.16;77.09;95862.47;5115209;28;20940;-78
2022/10/27 03:56:47;;;;;;;10.63;6.80;;;;;;;12.12;76.85;95853.13;5115275;28;20456;-77
2022/10/27 03:59:15;;;;;;;9.23;6.10;;;;;;;12.07;76.94;95852.63;5115213;28;20909;-77
2022/10/27 04:01:42;;;;;;;9.07;6.63;;;;;;;11.63;79.22;95853.28;5115532;28;20442;-77
2022/10/27 04:04:11;;;;;;;9.70;7.17;;;;;;;11.72;80.37;95848.19;5079472;28;20532;-76
2022/10/27 04:06:38;;;;;;;14.93;8.20;;;;;;;11.75;80.03;95853.22;5115162;28;20490;-78
2022/10/27 04:09:05;;;;;;;11.50;7.47;;;;;;;11.85;79.67;95848.13;5115246;28;20503;-77
2022/10/27 04:11:32;;;;;;;16.30;7.30;;;;;;;11.96;79.59;95845.56;5114021;28;21042;-78
2022/10/27 04:13:58;;;;;;;13.10;5.63;;;;;;;12.03;79.17;95845.94;5114482;28;20462;-77
2022/10/27 04:16:26;;;;;;;10.23;6.63;;;;;;;12.13;78.45;95838.16;5114333;28;20446;-78
2022/10/27 04:18:53;;;;;;;9.27;5.40;;;;;;;12.13;77.97;95846.06;5102125;28;20443;-78
2022/10/27 04:21:20;;;;;;;5.80;5.23;;;;;;;12.11;78.11;95838.28;5108117;28;20478;-77
2022/10/27 04:23:47;;;;;;;6.63;4.97;;;;;;;12.15;78.55;95847.66;5110128;28;20920;-78
2022/10/27 04:26:13;;;;;;;9.63;4.73;;;;;;;12.20;79.64;95842.88;5110362;28;20942;-78
2022/10/27 04:28:40;;;;;;;6.20;4.30;;;;;;;12.25;79.32;95840.72;5105295;28;20860;-78
2022/10/27 04:31:07;;;;;;;8.13;6.87;;;;;;;12.34;79.44;95850.53;5114464;28;20898;-79
2022/10/27 04:33:35;;;;;;;6.50;4.40;;;;;;;12.40;78.88;95847.44;5061987;28;20938;-79
2022/10/27 04:36:02;;;;;;;6.20;4.30;;;;;;;12.48;79.44;95851.28;5114413;28;20511;-78
2022/10/27 04:38:28;;;;;;;6.00;4.53;;;;;;;12.55;79.04;95849.84;5114647;28;20993;-77
2022/10/27 04:40:55;;;;;;;5.77;4.73;;;;;;;12.62;79.86;95844.00;5114996;28;20499;-77
2022/10/27 04:43:22;;;;;;;8.43;4.67;;;;;;;12.65;80.56;95848.16;5114671;28;20455;-79
2022/10/27 04:45:49;;;;;;;8.87;5.40;;;;;;;12.71;80.96;95848.53;5061894;28;20443;-78
2022/10/27 04:48:15;;;;;;;5.40;4.23;;;;;;;12.71;80.52;95847.69;5078538;28;20453;-77
2022/10/27 04:50:44;;;;;;;20.20;5.07;;;;;;;12.75;78.89;95846.53;5114603;28;20491;-77
2022/10/27 04:53:10;;;;;;;5.53;3.97;;;;;;;12.74;80.65;95855.38;5114448;28;20466;-78
2022/10/27 04:55:37;;;;;;;6.67;4.93;;;;;;;12.84;88.38;95855.50;5114842;28;20511;-81
2022/10/27 04:58:04;;;;;;;6.53;4.63;;;;;;;12.79;84.21;95855.84;5114243;28;20454;-77
2022/10/27 05:00:31;;;;;;;7.23;4.53;;;;;;;12.66;79.68;95855.94;5114255;28;20503;-78
2022/10/27 05:02:59;;;;;;;6.60;3.97;;;;;;;12.60;79.04;95861.69;5114196;28;20446;-77
2022/10/27 05:05:27;;;;;;;13.03;4.87;;;;;;;12.63;77.70;95868.53;5114088;28;20986;-75
2022/10/27 05:07:57;;;;;;;11.83;5.80;;;;;;;12.43;78.79;95863.94;5114297;28;20507;-80
2022/10/27 05:10:25;;;;;;;11.90;6.40;;;;;;;12.23;79.26;95876.00;5078025;28;21253;-78
2022/10/27 05:12:51;;;;;;;12.20;7.30;;;;;;;11.70;81.48;95881.63;5114032;28;20850;-77
2022/10/27 05:15:18;;;;;;;16.23;7.10;;;;;;;11.67;81.59;95886.28;5114260;28;20775;-78
2022/10/27 05:17:47;;;;;;;16.57;7.27;;;;;;;11.67;81.30;95902.91;5114200;28;20454;-78
2022/10/27 05:20:15;;;;;;;25.73;10.20;;;;;;;11.63;81.54;95901.44;5077744;28;20442;-77
2022/10/27 05:22:42;;;;;;;17.93;8.90;;;;;;;11.76;82.16;95912.75;5113905;28;20445;-78
2022/10/27 05:25:11;;;;;;;30.23;11.80;;;;;;;11.94;82.31;95912.38;5113506;28;20514;-78
2022/10/27 05:27:38;;;;;;;32.37;9.23;;;;;;;12.35;81.11;95918.00;5113899;28;20447;-78
2022/10/27 05:30:07;;;;;;;33.23;10.07;;;;;;;13.13;77.88;95922.56;5113386;28;20487;-80
2022/10/27 05:32:34;;;;;;;23.63;9.77;;;;;;;13.73;74.91;95920.47;5113274;28;20451;-77
2022/10/27 05:35:01;;;;;;;19.70;9.60;;;;;;;13.87;72.01;95922.81;5113310;28;20458;-77
2022/10/27 05:37:28;;;;;;;28.23;8.53;;;;;;;14.09;71.03;95928.00;5113618;28;20787;-77
2022/10/27 05:39:55;;;;;;;28.00;9.07;;;;;;;14.59;69.20;95930.94;5113580;28;20451;-77
2022/10/27 05:42:23;;;;;;;25.37;9.30;;;;;;;14.90;67.51;95930.97;5113706;28;20442;-78
2022/10/27 05:44:50;;;;;;;27.97;9.80;;;;;;;15.08;66.36;95932.88;5113147;28;20456;-78
2022/10/27 05:47:16;;;;;;;24.87;9.03;;;;;;;15.11;66.03;95937.06;5113348;28;20439;-78
2022/10/27 05:49:43;;;;;;;36.33;10.10;;;;;;;15.05;65.46;95942.88;5113787;28;20871;-77
2022/10/27 05:52:10;;;;;;;15.53;8.90;;;;;;;15.00;65.39;95950.34;5112900;28;20854;-79
2022/10/27 05:54:37;;;;;;;17.93;9.47;;;;;;;14.91;65.55;95961.72;5113570;28;20501;-77
2022/10/27 05:57:04;;;;;;;16.13;8.70;;;;;;;14.80;65.76;95949.44;5113226;28;20443;-77
2022/10/27 05:59:32;;;;;;;29.00;11.40;;;;;;;14.66;66.17;95953.22;5113160;28;20816;-77
2022/10/27 06:01:58;;;;;;;19.77;10.50;;;;;;;14.51;66.82;95954.50;5112879;28;20451;-79
2022/10/27 06:04:25;;;;;;;13.17;9.90;;;;;;;14.31;67.18;95963.22;5113172;28;20447;-77
2022/10/27 06:06:53;;;;;;;17.17;8.70;;;;;;;13.89;68.54;95963.97;5113106;28;20443;-77
2022/10/27 06:09:20;;;;;;;28.80;14.30;;;;;;;13.38;70.45;95968.94;5112868;28;20909;-77
2022/10/27 06:11:47;;;;;;;23.67;15.90;;;;;;;13.03;72.00;95966.41;5112959;28;20486;-77
2022/10/27 06:14:13;;;;;;;23.77;13.13;;;;;;;13.00;73.85;95971.88;5112905;28;20442;-78
2022/10/27 06:16:41;;;;;;;19.83;12.83;;;;;;;13.03;74.63;95969.88;5113345;28;20882;-78
2022/10/27 06:19:08;;;;;;;9.30;6.33;;;;;;;13.13;74.34;95966.50;5060268;28;20445;-77
2022/10/27 06:21:35;;;;;;;8.13;4.93;;;;;;;13.17;74.52;95968.81;5113107;28;20496;-77
2022/10/27 06:24:02;;;;;;;13.93;5.30;;;;;;;13.30;74.71;95961.66;5113190;28;20984;-77
2022/10/27 06:26:28;;;;;;;10.90;4.50;;;;;;;13.59;74.45;95964.63;5076850;28;20499;-77
2022/10/27 06:28:55;;;;;;;6.00;5.40;;;;;;;14.00;73.22;95963.06;5113244;28;20447;-76
2022/10/27 06:31:22;;;;;;;11.63;5.57;;;;;;;14.35;71.64;95970.75;5113001;28;20489;-77
2022/10/27 06:33:50;;;;;;;21.30;5.60;;;;;;;14.65;70.23;95972.66;5113991;28;20443;-77
2022/10/27 06:36:17;;;;;;;6.97;4.73;;;;;;;15.00;69.56;95982.06;5117384;28;20973;-77
2022/10/27 06:38:44;;;;;;;7.67;5.20;;;;;;;15.41;67.69;95978.53;5116857;28;20447;-77
2022/10/27 06:41:10;;;;;;;7.37;5.80;;;;;;;15.91;66.58;95975.97;5116983;28;20921;-77
2022/10/27 06:43:37;;;;;;;6.23;5.23;;;;;;;16.34;64.61;95986.19;5097909;28;21042;-77
2022/10/27 06:46:04;;;;;;;7.87;5.13;;;;;;;16.66;62.81;95986.75;5116706;28;20499;-77
2022/10/27 06:48:31;;;;;;;7.57;4.07;;;;;;;16.99;61.30;95992.59;5116773;28;20511;-77
2022/10/27 06:50:59;;;;;;;11.10;6.53;;;;;;;17.26;60.86;95989.19;5116607;28;20507;-77
2022/10/27 06:53:26;;;;;;;9.00;5.00;;;;;;;17.44;59.69;95987.47;5116483;28;20474;-77
2022/10/27 06:55:54;;;;;;;12.13;4.80;;;;;;;17.60;58.51;95992.97;5116526;28;20446;-77
2022/10/27 06:58:21;;;;;;;6.00;4.13;;;;;;;17.68;58.43;95996.75;5116558;28;20450;-78
2022/10/27 07:00:48;;;;;;;14.80;5.10;;;;;;;17.63;57.91;95999.78;5080543;28;20446;-77
2022/10/27 07:03:15;;;;;;;6.57;4.57;;;;;;;17.62;57.69;96000.78;5116390;28;20434;-77
2022/10/27 07:05:41;;;;;;;9.03;4.53;;;;;;;17.66;66.96;96007.50;5116523;28;20989;-78
2022/10/27 07:08:09;;;;;;;8.40;4.90;;;;;;;17.62;59.61;96011.41;5117235;28;20443;-77
2022/10/27 07:10:36;;;;;;;10.03;4.33;;;;;;;17.56;58.23;96012.81;5116441;28;21074;-78
2022/10/27 07:13:03;;;;;;;7.47;6.23;;;;;;;17.46;59.00;96011.19;5116282;28;20969;-79
2022/10/27 07:15:31;;;;;;;8.97;5.40;;;;;;;17.30;57.86;96009.97;5116134;28;20447;-78
2022/10/27 07:18:00;;;;;;;17.13;6.80;;;;;;;17.22;58.65;96011.66;5116495;28;21167;-77
2022/10/27 07:20:28;;;;;;;13.03;6.30;;;;;;;17.19;59.68;96010.16;5116758;28;20453;-79
2022/10/27 07:22:55;;;;;;;12.60;6.70;;;;;;;16.84;60.24;96010.75;5115596;28;20454;-78
2022/10/27 07:25:23;;;;;;;11.07;6.37;;;;;;;16.44;59.01;96013.50;5115969;28;20451;-78
2022/10/27 07:27:52;;;;;;;10.47;4.93;;;;;;;15.72;61.16;96005.84;5103924;28;20483;-78
2022/10/27 07:30:20;;;;;;;14.63;6.83;;;;;;;15.24;63.23;96017.00;5095228;28;20507;-78
2022/10/27 07:32:47;;;;;;;15.30;7.37;;;;;;;15.34;63.57;96012.63;5095254;28;20811;-77
2022/10/27 07:35:15;;;;;;;15.63;6.40;;;;;;;15.65;63.59;96012.66;5095185;28;20465;-78
2022/10/27 07:37:44;;;;;;;10.57;5.80;;;;;;;15.89;63.71;96018.41;5094887;28;20453;-78
2022/10/27 07:40:12;;;;;;;7.80;6.00;;;;;;;16.09;63.32;96014.00;5059459;28;20475;-78
2022/10/27 07:42:45;;;;;;;13.13;6.33;;;;;;;16.35;62.21;96025.78;5094617;28;20491;-78
2022/10/27 07:45:12;;;;;;;21.97;6.00;;;;;;;16.57;61.99;96035.28;5093344;28;20529;-77
2022/10/27 07:47:43;;;;;;;18.50;7.30;;;;;;;16.71;60.70;96032.25;5059009;28;20845;-78
2022/10/27 07:50:10;;;;;;;26.00;8.10;;;;;;;16.90;61.45;96027.91;5094697;28;20451;-77
2022/10/27 07:52:43;;;;;;;16.80;7.97;;;;;;;17.07;60.33;96021.06;5094778;28;20987;-77
2022/10/27 07:55:10;;;;;;;12.50;7.30;;;;;;;17.23;59.51;96030.09;5094922;28;20424;-78
2022/10/27 07:57:37;;;;;;;10.57;6.60;;;;;;;17.40;58.98;96038.31;5094489;28;20782;-77
2022/10/27 08:00:07;;;;;;;9.00;6.50;;;;;;;17.52;59.10;96029.19;5094302;28;20502;-77
2022/10/27 08:02:34;;;;;;;10.13;6.60;;;;;;;17.65;58.69;96024.41;5094157;28;20443;-78
2022/10/27 08:05:01;;;;;;;12.43;7.70;;;;;;;17.61;58.21;96020.34;5094155;28;20451;-79
2022/10/27 08:07:28;;;;;;;25.90;8.20;;;;;;;17.67;59.00;96026.91;5094570;28;20440;-77
2022/10/27 08:09:55;;;;;;;13.77;8.80;;;;;;;17.72;58.61;96022.88;5094473;28;20440;-77
2022/10/27 08:12:22;;;;;;;13.73;8.97;;;;;;;17.77;59.14;96020.59;5093990;28;20970;-78
2022/10/27 08:14:48;;;;;;;14.90;9.07;;;;;;;17.91;58.36;96017.44;5093841;28;20462;-77
2022/10/27 08:17:17;;;;;;;12.67;9.00;;;;;;;18.11;58.53;96022.66;5094157;28;20500;-78
2022/10/27 08:19:43;;;;;;;18.23;9.27;;;;;;;18.32;57.91;96014.44;5094235;28;20432;-77
2022/10/27 08:22:10;;;;;;;19.97;10.37;;;;;;;18.51;57.22;96009.84;5094239;28;20455;-78
2022/10/27 08:24:37;;;;;;;22.60;11.60;;;;;;;18.74;56.38;96004.91;5093978;28;20436;-78
2022/10/27 08:27:04;;;;;;;17.73;9.60;;;;;;;18.91;54.79;96000.56;5093739;28;21000;-78
2022/10/27 08:29:30;;;;;;;25.37;10.10;;;;;;;19.03;53.76;96001.16;5094281;28;20444;-78
2022/10/27 08:31:57;;;;;;;16.40;9.90;;;;;;;19.18;53.84;96008.44;5093912;28;20464;-77
2022/10/27 08:34:25;;;;;;;10.53;7.97;;;;;;;19.34;52.96;96009.50;5093899;28;20493;-78
2022/10/27 08:36:52;;;;;;;12.77;8.07;;;;;;;19.53;53.18;96006.69;5093893;28;20972;-77
2022/10/27 08:39:19;;;;;;;16.70;7.87;;;;;;;19.71;53.04;95999.47;5041393;28;20831;-78
2022/10/27 08:41:54;;;;;;;20.47;8.03;;;;;;;19.92;52.38;96000.88;5093719;28;20440;-78
2022/10/27 08:44:25;;;;;;;11.60;7.33;;;;;;;20.13;50.96;96006.63;5093855;28;20446;-77
2022/10/27 08:46:54;;;;;;;20.30;10.13;;;;;;;20.16;51.38;96008.97;5041746;28;20570;-77
2022/10/27 08:49:28;;;;;;;15.57;9.13;;;;;;;20.25;50.40;96004.50;5093500;28;20448;-78
2022/10/27 08:52:00;;;;;;;19.07;11.37;;;;;;;20.24;50.74;96009.00;5093483;28;20582;-78
2022/10/27 08:54:28;;;;;;;18.03;10.97;;;;;;;20.09;50.47;95998.13;5093494;28;20824;-77
2022/10/27 08:56:58;;;;;;;16.67;11.10;;;;;;;20.15;50.54;95999.28;5093142;28;20446;-78
2022/10/27 08:59:30;;;;;;;17.47;10.80;;;;;;;20.10;51.74;96004.28;5093731;28;20444;-77
2022/10/27 09:02:05;;;;;;;15.53;10.93;;;;;;;20.04;49.77;96007.59;5094575;28;20535;-81
2022/10/27 09:05:03;;;;;;;16.63;11.03;;;;;;;20.00;50.77;96008.91;5058956;28;20435;-83
2022/10/27 09:07:37;;;;;;;20.50;10.50;;;;;;;20.00;57.79;96000.94;5012279;28;20511;-79
2022/10/27 09:10:11;;;;;;;18.30;10.90;;;;;;;19.90;51.28;96006.34;5012303;28;20448;-81
2022/10/27 09:13:03;;;;;;;22.00;11.70;;;;;;;19.87;50.59;96005.84;5011808;28;20833;-79
2022/10/27 09:15:42;;;;;;;30.50;12.47;;;;;;;19.94;51.08;96009.53;5011377;28;20454;-78
2022/10/27 09:18:20;;;;;;;22.70;11.80;;;;;;;19.95;51.14;96003.22;5011399;28;20509;-78
2022/10/27 09:20:51;;;;;;;26.73;12.13;;;;;;;19.55;50.16;96003.84;5011421;28;20443;-78
2022/10/27 09:23:20;;;;;;;20.80;11.63;;;;;;;19.61;50.42;95998.72;5011654;28;20443;-77
2022/10/27 09:25:50;;;;;;;20.30;11.63;;;;;;;19.57;50.29;95997.38;4962462;28;20479;-78
2022/10/27 09:28:19;;;;;;;16.10;9.20;;;;;;;19.65;49.73;95996.56;4994980;28;20440;-77
2022/10/27 09:30:50;;;;;;;11.07;8.13;;;;;;;19.79;49.62;95994.16;5011252;28;20483;-78
2022/10/27 09:33:21;;;;;;;37.53;17.03;;;;;;;20.25;70.76;96000.00;5011208;28;20881;-78
2022/10/27 09:35:50;;;;;;;24.53;10.90;;;;;;;20.60;61.72;96000.78;5010977;28;20542;-78
2022/10/27 09:38:22;;;;;;;10.97;8.40;;;;;;;21.05;49.91;95997.63;5011231;28;20443;-80
2022/10/27 09:40:50;;;;;;;18.03;10.00;;;;;;;21.36;59.33;95992.44;5011035;28;20538;-78
2022/10/27 09:43:18;;;;;;;14.70;9.90;;;;;;;21.52;52.24;95984.41;5011683;28;20439;-78
2022/10/27 09:45:44;;;;;;;15.07;8.57;;;;;;;21.68;51.80;95985.34;5093665;28;20444;-79
2022/10/27 09:48:19;;;;;;;12.50;8.33;;;;;;;21.57;48.83;95984.72;5093429;28;20455;-78
2022/10/27 09:50:52;;;;;;;14.40;8.70;;;;;;;21.64;47.83;95982.19;5093319;28;20933;-78
2022/10/27 09:53:41;;;;;;;15.07;8.17;;;;;;;21.88;49.18;95983.97;5093263;28;20549;-77
2022/10/27 09:56:11;;;;;;;20.73;7.80;;;;;;;21.93;45.69;95978.94;5093653;28;20551;-79
2022/10/27 09:58:47;;;;;;;18.00;8.20;;;;;;;21.65;43.59;95963.31;5094069;28;20447;-80
2022/10/27 10:01:14;;;;;;;15.93;6.70;;;;;;;21.49;43.15;95973.25;5093268;28;20458;-79
2022/10/27 10:03:53;;;;;;;10.70;6.77;;;;;;;21.36;43.53;95973.75;5093344;28;20444;-77
2022/10/27 10:06:29;;;;;;;15.27;6.60;;;;;;;21.21;43.35;95973.59;5093053;28;20953;-77
2022/10/27 10:09:15;;;;;;;12.03;6.80;;;;;;;20.90;43.58;95973.47;5091682;28;20854;-77
2022/10/27 10:11:42;;;;;;;6.33;4.07;;;;;;;20.85;42.74;95965.13;5092698;28;20487;-78
2022/10/27 10:14:21;;;;;;;6.00;4.03;;;;;;;20.62;43.12;95959.59;5092890;28;20447;-78
2022/10/27 10:16:48;;;;;;;9.27;4.50;;;;;;;20.67;42.48;95959.94;5093152;28;20977;-78
2022/10/27 10:19:18;;;;;;;11.20;4.50;;;;;;;20.75;43.12;95968.94;5092750;28;20451;-77
2022/10/27 10:21:50;;;;;;;6.37;4.47;;;;;;;20.84;43.88;95962.63;5092682;28;20475;-78
2022/10/27 10:24:19;;;;;;;12.40;5.87;;;;;;;20.78;43.25;95957.94;5056498;28;21008;-78
2022/10/27 10:26:48;;;;;;;9.27;6.40;;;;;;;20.79;44.17;95963.09;5092892;28;20448;-78
2022/10/27 10:29:26;;;;;;;7.33;4.63;;;;;;;20.77;43.16;95958.94;5092802;28;20448;-78
2022/10/27 10:32:09;;;;;;;7.33;4.30;;;;;;;20.61;40.84;95959.78;5092998;28;20561;-77
2022/10/27 10:34:36;;;;;;;20.33;4.50;;;;;;;20.55;41.18;95955.94;4990665;28;20444;-77
2022/10/27 10:37:29;;;;;;;12.10;5.57;;;;;;;20.64;41.91;95960.28;4974764;28;20448;-78
2022/10/27 10:40:08;;;;;;;11.97;5.53;;;;;;;20.68;41.36;95958.09;4974606;28;20911;-77
2022/10/27 10:42:35;;;;;;;7.27;4.70;;;;;;;20.82;41.94;95946.78;4990731;28;20460;-77
2022/10/27 10:45:10;;;;;;;6.93;4.50;;;;;;;20.88;42.27;95948.78;4990675;28;20444;-77
2022/10/27 10:47:37;;;;;;;6.90;4.20;;;;;;;20.80;39.60;95945.25;4991111;28;20539;-78
2022/10/27 10:50:11;;;;;;;4.83;4.33;;;;;;;20.78;40.71;95945.44;4990907;28;20845;-77
2022/10/27 10:52:44;;;;;;;10.40;5.63;;;;;;;20.78;41.96;95942.75;4990605;28;20491;-77
2022/10/27 10:55:19;;;;;;;9.23;5.70;;;;;;;20.82;41.23;95938.78;4990669;28;20463;-77
2022/10/27 10:57:47;;;;;;;7.30;4.90;;;;;;;20.83;40.19;95937.78;4990889;28;20548;-78
2022/10/27 11:00:16;;;;;;;10.87;5.17;;;;;;;20.96;41.18;95929.25;4990847;28;20890;-77
2022/10/27 11:02:51;;;;;;;15.07;5.17;;;;;;;21.05;39.81;95928.22;4990544;28;20534;-77
2022/10/27 11:05:22;;;;;;;5.67;3.97;;;;;;;21.06;37.39;95929.06;4990670;28;20465;-78
2022/10/27 11:07:51;;;;;;;10.63;2.90;;;;;;;21.09;36.61;95926.06;4990907;28;20584;-77
2022/10/27 11:10:22;;;;;;;4.17;2.20;;;;;;;21.08;34.64;95929.72;4990753;28;20456;-77
2022/10/27 11:12:52;;;;;;;5.67;3.20;;;;;;;20.73;35.35;95923.75;5035375;28;20486;-78
2022/10/27 11:15:24;;;;;;;9.33;2.80;;;;;;;20.92;35.79;95910.06;5056883;28;20443;-77
2022/10/27 11:17:54;;;;;;;7.50;3.47;;;;;;;20.95;36.41;95909.75;5092508;28;20830;-78
2022/10/27 11:20:25;;;;;;;4.93;2.90;;;;;;;21.12;37.23;95910.56;5094500;28;20493;-77
2022/10/27 11:22:53;;;;;;;5.97;2.93;;;;;;;21.28;37.23;95904.38;5096275;28;20448;-78
2022/10/27 11:25:23;;;;;;;9.17;4.10;;;;;;;21.82;68.10;95910.66;5095912;28;20526;-77
2022/10/27 11:28:00;;;;;;;3.30;2.57;;;;;;;22.06;39.40;95904.41;5095897;28;20512;-76
2022/10/27 11:30:29;;;;;;;6.93;3.43;;;;;;;22.22;51.47;95903.44;5095500;28;20938;-78
2022/10/27 11:33:08;;;;;;;5.13;3.30;;;;;;;22.45;41.58;95898.13;5095887;28;20990;-77
2022/10/27 11:35:42;;;;;;;4.40;3.10;;;;;;;22.71;37.98;95903.09;5045112;28;20550;-77
2022/10/27 11:38:16;;;;;;;7.17;3.60;;;;;;;23.01;44.43;95899.50;5095546;28;20447;-77
2022/10/27 11:40:50;;;;;;;3.10;2.80;;;;;;;23.19;36.00;95893.81;5095891;28;20447;-77